Portada
METAR-TAF:

METAR-TAF

Aeroports :

Savannakhet, Laos

latitud: 16-33-24N, longitud: 104-45-34E, altitud: 155 m

Observació

L'informe es va fer fa 9 hores i 27 minuts, a les 12:00 UTC
Vent 2 kt del Est/Nord-Est
Temperatura 25°C
Humitat 69%
Pressió 1015 hPa
Visibilitat: 5000 m
Núvols disperses a una alçada de 4000 ft
Cel ennuvolat a una alçada de 10000 ft
boirina

METAR: VLSK 261200Z 06002KT 5000 BR SCT040 BKN100 25/19 Q1015 NOSIG

Hora: 04:27 (21:27 UTC)

Pronòstic

L'informe es va fer fa 4 hores i 27 minuts, a les 17:00 UTC
Pronòstic vàlid del 26 a les 18 UTC al 27 a les 18 UTC
Vent 10 kt del Est/Nord-Est
Visibilitat: 4000 m
Escasses núvols a una alçada de 4000 ft
Núvols disperses a una alçada de 10000 ft
boirina

TAF: VLSK 261700Z 2618/2718 06010KT 4000 BR FEW040 SCT100

Observacions i pronòstics meteorològics de més de 4000 aeroports (METAR i TAF).

Les estacions disponibles són els punts grocs i vermells al mapa.

Posi el ratolí al punt desitjat per veure el nom de l'estació.

Feu clic per veure les observacions i els pronòstics meteorològics.

Per canviar el mapa: feu clic els botons verds amb una creu de color negre per apropar; al botó verd amb un guió per allunyar la imatge; o en les fletxes verdes per a mapes adjacents.


METAR-TAF: